sensor_id;sensor_type;location;lat;lon;timestamp;P1;durP1;ratioP1;P2;durP2;ratioP2
74872;SDS011;68776;44.762;37.698;2023-07-13T00:00:19;4.70;;;2.40;;
74872;SDS011;68776;44.762;37.698;2023-07-13T00:01:21;4.00;;;1.90;;
74872;SDS011;68776;44.762;37.698;2023-07-13T00:02:24;8.52;;;2.22;;
74872;SDS011;68776;44.762;37.698;2023-07-13T00:03:27;6.80;;;1.70;;
74872;SDS011;68776;44.762;37.698;2023-07-13T00:04:27;5.07;;;1.87;;
74872;SDS011;68776;44.762;37.698;2023-07-13T00:05:28;4.93;;;1.80;;
74872;SDS011;68776;44.762;37.698;2023-07-13T00:06:29;7.73;;;2.13;;
74872;SDS011;68776;44.762;37.698;2023-07-13T00:07:33;4.55;;;1.92;;
74872;SDS011;68776;44.762;37.698;2023-07-13T00:08:34;4.50;;;2.15;;
74872;SDS011;68776;44.762;37.698;2023-07-13T00:09:36;5.15;;;2.30;;
74872;SDS011;68776;44.762;37.698;2023-07-13T00:10:40;8.60;;;2.25;;
74872;SDS011;68776;44.762;37.698;2023-07-13T00:11:42;4.15;;;2.20;;
74872;SDS011;68776;44.762;37.698;2023-07-13T00:12:44;4.50;;;2.40;;
74872;SDS011;68776;44.762;37.698;2023-07-13T00:13:45;5.43;;;2.58;;
74872;SDS011;68776;44.762;37.698;2023-07-13T00:14:46;5.03;;;2.00;;
74872;SDS011;68776;44.762;37.698;2023-07-13T00:15:47;5.03;;;2.50;;
74872;SDS011;68776;44.762;37.698;2023-07-13T00:16:48;4.65;;;2.20;;
74872;SDS011;68776;44.762;37.698;2023-07-13T00:17:50;5.10;;;2.80;;
74872;SDS011;68776;44.762;37.698;2023-07-13T00:18:51;4.75;;;2.28;;
74872;SDS011;68776;44.762;37.698;2023-07-13T00:19:53;4.72;;;2.63;;
74872;SDS011;68776;44.762;37.698;2023-07-13T00:20:56;5.03;;;2.53;;
74872;SDS011;68776;44.762;37.698;2023-07-13T00:22:05;5.75;;;3.03;;
74872;SDS011;68776;44.762;37.698;2023-07-13T00:23:06;5.75;;;2.92;;
74872;SDS011;68776;44.762;37.698;2023-07-13T00:24:07;4.88;;;2.60;;
74872;SDS011;68776;44.762;37.698;2023-07-13T00:25:13;5.05;;;2.80;;
74872;SDS011;68776;44.762;37.698;2023-07-13T00:26:14;6.22;;;3.08;;
74872;SDS011;68776;44.762;37.698;2023-07-13T00:27:15;5.32;;;2.75;;
74872;SDS011;68776;44.762;37.698;2023-07-13T00:28:18;5.20;;;3.00;;
74872;SDS011;68776;44.762;37.698;2023-07-13T00:29:19;5.57;;;3.10;;
74872;SDS011;68776;44.762;37.698;2023-07-13T00:30:21;4.95;;;3.20;;
74872;SDS011;68776;44.762;37.698;2023-07-13T00:31:22;5.93;;;3.40;;
74872;SDS011;68776;44.762;37.698;2023-07-13T00:32:24;8.23;;;3.40;;
74872;SDS011;68776;44.762;37.698;2023-07-13T00:33:28;5.43;;;3.03;;
74872;SDS011;68776;44.762;37.698;2023-07-13T00:34:31;6.30;;;3.25;;
74872;SDS011;68776;44.762;37.698;2023-07-13T00:35:34;5.72;;;3.33;;
74872;SDS011;68776;44.762;37.698;2023-07-13T00:36:35;6.20;;;3.65;;
74872;SDS011;68776;44.762;37.698;2023-07-13T00:37:36;6.10;;;3.53;;
74872;SDS011;68776;44.762;37.698;2023-07-13T00:38:37;5.97;;;3.63;;
74872;SDS011;68776;44.762;37.698;2023-07-13T00:39:38;5.25;;;3.05;;
74872;SDS011;68776;44.762;37.698;2023-07-13T00:40:39;6.53;;;3.03;;
74872;SDS011;68776;44.762;37.698;2023-07-13T00:41:40;5.68;;;3.30;;
74872;SDS011;68776;44.762;37.698;2023-07-13T00:42:41;5.47;;;3.00;;
74872;SDS011;68776;44.762;37.698;2023-07-13T00:43:42;7.30;;;3.33;;
74872;SDS011;68776;44.762;37.698;2023-07-13T00:45:03;5.20;;;3.03;;
74872;SDS011;68776;44.762;37.698;2023-07-13T00:47:12;7.03;;;3.10;;
74872;SDS011;68776;44.762;37.698;2023-07-13T00:48:15;5.72;;;2.95;;
74872;SDS011;68776;44.762;37.698;2023-07-13T00:49:29;5.20;;;3.13;;
74872;SDS011;68776;44.762;37.698;2023-07-13T00:50:32;9.15;;;3.00;;
74872;SDS011;68776;44.762;37.698;2023-07-13T00:51:35;5.23;;;2.60;;
74872;SDS011;68776;44.762;37.698;2023-07-13T00:52:51;13.00;;;3.05;;
74872;SDS011;68776;44.762;37.698;2023-07-13T00:53:54;6.57;;;3.00;;
74872;SDS011;68776;44.762;37.698;2023-07-13T00:54:59;5.40;;;2.40;;
74872;SDS011;68776;44.762;37.698;2023-07-13T00:56:00;7.70;;;2.88;;
74872;SDS011;68776;44.762;37.698;2023-07-13T00:57:02;5.13;;;3.03;;
74872;SDS011;68776;44.762;37.698;2023-07-13T00:58:06;4.13;;;2.10;;
74872;SDS011;68776;44.762;37.698;2023-07-13T00:59:08;4.78;;;2.65;;
74872;SDS011;68776;44.762;37.698;2023-07-13T01:00:11;5.05;;;2.40;;
74872;SDS011;68776;44.762;37.698;2023-07-13T01:01:13;4.88;;;2.60;;
74872;SDS011;68776;44.762;37.698;2023-07-13T01:02:14;8.30;;;2.53;;
74872;SDS011;68776;44.762;37.698;2023-07-13T01:03:16;5.32;;;2.58;;
74872;SDS011;68776;44.762;37.698;2023-07-13T01:04:18;5.78;;;2.63;;
74872;SDS011;68776;44.762;37.698;2023-07-13T01:05:20;4.97;;;2.00;;
74872;SDS011;68776;44.762;37.698;2023-07-13T01:06:22;7.35;;;2.88;;
74872;SDS011;68776;44.762;37.698;2023-07-13T01:07:23;5.90;;;2.90;;
74872;SDS011;68776;44.762;37.698;2023-07-13T01:08:25;6.50;;;2.72;;
74872;SDS011;68776;44.762;37.698;2023-07-13T01:09:26;5.05;;;2.70;;
74872;SDS011;68776;44.762;37.698;2023-07-13T01:10:28;5.10;;;2.60;;
74872;SDS011;68776;44.762;37.698;2023-07-13T01:11:29;5.47;;;2.60;;
74872;SDS011;68776;44.762;37.698;2023-07-13T01:12:30;6.50;;;3.15;;
74872;SDS011;68776;44.762;37.698;2023-07-13T01:13:31;5.17;;;2.40;;
74872;SDS011;68776;44.762;37.698;2023-07-13T01:14:32;6.15;;;3.17;;
74872;SDS011;68776;44.762;37.698;2023-07-13T01:15:34;5.00;;;2.77;;
74872;SDS011;68776;44.762;37.698;2023-07-13T01:16:42;5.90;;;2.88;;
74872;SDS011;68776;44.762;37.698;2023-07-13T01:17:45;5.60;;;2.97;;
74872;SDS011;68776;44.762;37.698;2023-07-13T01:18:46;6.05;;;3.20;;
74872;SDS011;68776;44.762;37.698;2023-07-13T01:19:47;4.93;;;2.75;;
74872;SDS011;68776;44.762;37.698;2023-07-13T01:20:55;5.93;;;3.28;;
74872;SDS011;68776;44.762;37.698;2023-07-13T01:22:01;5.88;;;3.45;;
74872;SDS011;68776;44.762;37.698;2023-07-13T01:23:07;5.60;;;2.90;;
74872;SDS011;68776;44.762;37.698;2023-07-13T01:24:11;5.67;;;2.80;;
74872;SDS011;68776;44.762;37.698;2023-07-13T01:25:11;5.95;;;3.22;;
74872;SDS011;68776;44.762;37.698;2023-07-13T01:26:13;9.18;;;3.53;;
74872;SDS011;68776;44.762;37.698;2023-07-13T01:27:14;5.85;;;2.80;;
74872;SDS011;68776;44.762;37.698;2023-07-13T01:28:18;7.63;;;3.78;;
74872;SDS011;68776;44.762;37.698;2023-07-13T01:29:19;6.78;;;3.10;;
74872;SDS011;68776;44.762;37.698;2023-07-13T01:30:21;6.65;;;3.83;;
74872;SDS011;68776;44.762;37.698;2023-07-13T01:31:22;6.37;;;3.53;;
74872;SDS011;68776;44.762;37.698;2023-07-13T01:32:23;11.63;;;3.42;;
74872;SDS011;68776;44.762;37.698;2023-07-13T01:33:27;6.65;;;3.85;;
74872;SDS011;68776;44.762;37.698;2023-07-13T01:34:28;10.27;;;3.57;;
74872;SDS011;68776;44.762;37.698;2023-07-13T01:35:29;7.80;;;3.13;;
74872;SDS011;68776;44.762;37.698;2023-07-13T01:36:30;6.35;;;2.72;;
74872;SDS011;68776;44.762;37.698;2023-07-13T01:37:31;5.23;;;2.87;;
74872;SDS011;68776;44.762;37.698;2023-07-13T01:38:34;5.13;;;2.50;;
74872;SDS011;68776;44.762;37.698;2023-07-13T01:39:35;5.13;;;2.60;;
74872;SDS011;68776;44.762;37.698;2023-07-13T01:40:37;5.88;;;2.20;;
74872;SDS011;68776;44.762;37.698;2023-07-13T01:41:38;6.60;;;2.60;;
74872;SDS011;68776;44.762;37.698;2023-07-13T01:42:39;6.38;;;2.40;;
74872;SDS011;68776;44.762;37.698;2023-07-13T01:43:40;8.27;;;2.70;;
74872;SDS011;68776;44.762;37.698;2023-07-13T01:44:41;5.90;;;2.63;;
74872;SDS011;68776;44.762;37.698;2023-07-13T01:45:42;5.47;;;2.53;;
74872;SDS011;68776;44.762;37.698;2023-07-13T01:46:44;4.60;;;2.30;;
74872;SDS011;68776;44.762;37.698;2023-07-13T01:47:45;5.93;;;2.95;;
74872;SDS011;68776;44.762;37.698;2023-07-13T01:48:46;6.35;;;2.80;;
74872;SDS011;68776;44.762;37.698;2023-07-13T01:49:47;6.80;;;3.25;;
74872;SDS011;68776;44.762;37.698;2023-07-13T01:50:48;13.15;;;2.92;;
74872;SDS011;68776;44.762;37.698;2023-07-13T01:51:50;5.53;;;3.25;;
74872;SDS011;68776;44.762;37.698;2023-07-13T01:52:51;6.25;;;3.03;;
74872;SDS011;68776;44.762;37.698;2023-07-13T01:53:52;6.03;;;3.30;;
74872;SDS011;68776;44.762;37.698;2023-07-13T01:54:53;7.57;;;3.50;;
74872;SDS011;68776;44.762;37.698;2023-07-13T01:55:54;10.30;;;3.80;;
74872;SDS011;68776;44.762;37.698;2023-07-13T01:56:55;5.72;;;3.28;;
74872;SDS011;68776;44.762;37.698;2023-07-13T01:57:56;6.80;;;3.50;;
74872;SDS011;68776;44.762;37.698;2023-07-13T01:58:57;7.13;;;3.97;;
74872;SDS011;68776;44.762;37.698;2023-07-13T01:59:58;5.43;;;3.00;;
74872;SDS011;68776;44.762;37.698;2023-07-13T02:00:59;4.85;;;2.47;;
74872;SDS011;68776;44.762;37.698;2023-07-13T02:02:02;5.93;;;3.38;;
74872;SDS011;68776;44.762;37.698;2023-07-13T02:03:03;9.93;;;3.53;;
74872;SDS011;68776;44.762;37.698;2023-07-13T02:04:06;6.63;;;3.83;;
74872;SDS011;68776;44.762;37.698;2023-07-13T02:05:07;7.13;;;3.65;;
74872;SDS011;68776;44.762;37.698;2023-07-13T02:06:08;6.03;;;3.47;;
74872;SDS011;68776;44.762;37.698;2023-07-13T02:07:10;6.80;;;3.17;;
74872;SDS011;68776;44.762;37.698;2023-07-13T02:08:11;8.73;;;2.93;;
74872;SDS011;68776;44.762;37.698;2023-07-13T02:09:12;6.15;;;3.33;;
74872;SDS011;68776;44.762;37.698;2023-07-13T02:10:13;6.03;;;3.73;;
74872;SDS011;68776;44.762;37.698;2023-07-13T02:11:14;6.30;;;3.60;;
74872;SDS011;68776;44.762;37.698;2023-07-13T02:12:15;6.60;;;3.08;;
74872;SDS011;68776;44.762;37.698;2023-07-13T02:13:16;7.35;;;3.08;;
74872;SDS011;68776;44.762;37.698;2023-07-13T02:14:17;6.00;;;2.50;;
74872;SDS011;68776;44.762;37.698;2023-07-13T02:15:18;5.45;;;2.63;;
74872;SDS011;68776;44.762;37.698;2023-07-13T02:16:19;5.60;;;2.60;;
74872;SDS011;68776;44.762;37.698;2023-07-13T02:17:20;5.32;;;2.75;;
74872;SDS011;68776;44.762;37.698;2023-07-13T02:18:22;6.40;;;3.15;;
74872;SDS011;68776;44.762;37.698;2023-07-13T02:19:23;7.45;;;2.75;;
74872;SDS011;68776;44.762;37.698;2023-07-13T02:20:24;6.57;;;2.70;;
74872;SDS011;68776;44.762;37.698;2023-07-13T02:21:26;6.10;;;2.42;;
74872;SDS011;68776;44.762;37.698;2023-07-13T02:22:27;7.63;;;2.72;;
74872;SDS011;68776;44.762;37.698;2023-07-13T02:23:31;4.78;;;2.40;;
74872;SDS011;68776;44.762;37.698;2023-07-13T02:24:32;5.15;;;2.25;;
74872;SDS011;68776;44.762;37.698;2023-07-13T02:25:33;6.22;;;2.85;;
74872;SDS011;68776;44.762;37.698;2023-07-13T02:26:34;7.63;;;2.47;;
74872;SDS011;68776;44.762;37.698;2023-07-13T02:27:35;5.28;;;2.45;;
74872;SDS011;68776;44.762;37.698;2023-07-13T02:28:36;6.38;;;2.42;;
74872;SDS011;68776;44.762;37.698;2023-07-13T02:29:37;6.53;;;3.13;;
74872;SDS011;68776;44.762;37.698;2023-07-13T02:30:37;8.43;;;2.83;;
74872;SDS011;68776;44.762;37.698;2023-07-13T02:31:39;7.20;;;2.85;;
74872;SDS011;68776;44.762;37.698;2023-07-13T02:32:40;7.95;;;3.20;;
74872;SDS011;68776;44.762;37.698;2023-07-13T02:33:41;6.63;;;2.63;;
74872;SDS011;68776;44.762;37.698;2023-07-13T02:34:42;6.88;;;2.80;;
74872;SDS011;68776;44.762;37.698;2023-07-13T02:35:43;8.70;;;3.00;;
74872;SDS011;68776;44.762;37.698;2023-07-13T02:36:44;8.07;;;3.15;;
74872;SDS011;68776;44.762;37.698;2023-07-13T02:37:48;6.72;;;3.13;;
74872;SDS011;68776;44.762;37.698;2023-07-13T02:38:49;8.68;;;3.25;;
74872;SDS011;68776;44.762;37.698;2023-07-13T02:39:50;7.57;;;3.40;;
74872;SDS011;68776;44.762;37.698;2023-07-13T02:40:51;7.85;;;3.22;;
74872;SDS011;68776;44.762;37.698;2023-07-13T02:41:54;6.55;;;3.20;;
74872;SDS011;68776;44.762;37.698;2023-07-13T02:42:55;7.50;;;2.95;;
74872;SDS011;68776;44.762;37.698;2023-07-13T02:43:57;7.73;;;3.10;;
74872;SDS011;68776;44.762;37.698;2023-07-13T02:45:03;6.82;;;3.45;;
74872;SDS011;68776;44.762;37.698;2023-07-13T02:46:04;7.63;;;2.35;;
74872;SDS011;68776;44.762;37.698;2023-07-13T02:47:09;6.60;;;3.10;;
74872;SDS011;68776;44.762;37.698;2023-07-13T02:48:10;6.63;;;2.75;;
74872;SDS011;68776;44.762;37.698;2023-07-13T02:49:11;6.72;;;3.33;;
74872;SDS011;68776;44.762;37.698;2023-07-13T02:50:12;6.07;;;2.45;;
74872;SDS011;68776;44.762;37.698;2023-07-13T02:51:13;5.85;;;2.63;;
74872;SDS011;68776;44.762;37.698;2023-07-13T02:52:14;6.38;;;2.55;;
74872;SDS011;68776;44.762;37.698;2023-07-13T02:53:15;8.10;;;3.28;;
74872;SDS011;68776;44.762;37.698;2023-07-13T02:54:16;8.50;;;2.93;;
74872;SDS011;68776;44.762;37.698;2023-07-13T02:55:17;6.07;;;3.00;;
74872;SDS011;68776;44.762;37.698;2023-07-13T02:56:21;7.40;;;3.67;;
74872;SDS011;68776;44.762;37.698;2023-07-13T02:57:23;9.32;;;3.22;;
74872;SDS011;68776;44.762;37.698;2023-07-13T02:58:24;6.60;;;3.22;;
74872;SDS011;68776;44.762;37.698;2023-07-13T02:59:25;7.28;;;3.10;;
74872;SDS011;68776;44.762;37.698;2023-07-13T03:00:27;8.50;;;3.30;;
74872;SDS011;68776;44.762;37.698;2023-07-13T03:01:28;6.77;;;3.27;;
74872;SDS011;68776;44.762;37.698;2023-07-13T03:02:29;6.60;;;3.22;;
74872;SDS011;68776;44.762;37.698;2023-07-13T03:03:31;9.27;;;3.40;;
74872;SDS011;68776;44.762;37.698;2023-07-13T03:04:32;6.55;;;2.95;;
74872;SDS011;68776;44.762;37.698;2023-07-13T03:05:33;8.65;;;2.78;;
74872;SDS011;68776;44.762;37.698;2023-07-13T03:06:34;8.63;;;3.08;;
74872;SDS011;68776;44.762;37.698;2023-07-13T03:07:35;9.75;;;3.42;;
74872;SDS011;68776;44.762;37.698;2023-07-13T03:08:38;6.88;;;2.97;;
74872;SDS011;68776;44.762;37.698;2023-07-13T03:09:39;5.95;;;2.78;;
74872;SDS011;68776;44.762;37.698;2023-07-13T03:10:41;6.88;;;3.03;;
74872;SDS011;68776;44.762;37.698;2023-07-13T03:11:44;7.07;;;2.65;;
74872;SDS011;68776;44.762;37.698;2023-07-13T03:12:56;6.53;;;2.63;;
74872;SDS011;68776;44.762;37.698;2023-07-13T03:14:00;7.40;;;3.30;;
74872;SDS011;68776;44.762;37.698;2023-07-13T03:15:04;7.80;;;3.10;;
74872;SDS011;68776;44.762;37.698;2023-07-13T03:16:07;7.90;;;3.08;;
74872;SDS011;68776;44.762;37.698;2023-07-13T03:17:09;7.32;;;3.13;;
74872;SDS011;68776;44.762;37.698;2023-07-13T03:18:13;6.07;;;2.60;;
74872;SDS011;68776;44.762;37.698;2023-07-13T03:19:14;7.32;;;3.25;;
74872;SDS011;68776;44.762;37.698;2023-07-13T03:20:20;7.90;;;3.70;;
74872;SDS011;68776;44.762;37.698;2023-07-13T03:21:21;7.88;;;3.17;;
74872;SDS011;68776;44.762;37.698;2023-07-13T03:22:22;7.68;;;3.55;;
74872;SDS011;68776;44.762;37.698;2023-07-13T03:23:23;9.00;;;2.77;;
74872;SDS011;68776;44.762;37.698;2023-07-13T03:24:25;7.68;;;3.15;;
74872;SDS011;68776;44.762;37.698;2023-07-13T03:25:26;8.93;;;3.90;;
74872;SDS011;68776;44.762;37.698;2023-07-13T03:26:28;6.97;;;3.53;;
74872;SDS011;68776;44.762;37.698;2023-07-13T03:27:30;5.80;;;2.75;;
74872;SDS011;68776;44.762;37.698;2023-07-13T03:28:31;8.23;;;3.63;;
74872;SDS011;68776;44.762;37.698;2023-07-13T03:29:33;9.15;;;3.17;;
74872;SDS011;68776;44.762;37.698;2023-07-13T03:30:34;8.20;;;3.30;;
74872;SDS011;68776;44.762;37.698;2023-07-13T03:31:35;8.07;;;3.10;;
74872;SDS011;68776;44.762;37.698;2023-07-13T03:32:37;7.32;;;3.35;;
74872;SDS011;68776;44.762;37.698;2023-07-13T03:33:40;7.30;;;3.13;;
74872;SDS011;68776;44.762;37.698;2023-07-13T03:34:42;8.32;;;3.47;;
74872;SDS011;68776;44.762;37.698;2023-07-13T03:35:43;7.43;;;3.97;;
74872;SDS011;68776;44.762;37.698;2023-07-13T03:36:44;8.98;;;3.30;;
74872;SDS011;68776;44.762;37.698;2023-07-13T03:37:47;7.27;;;3.27;;
74872;SDS011;68776;44.762;37.698;2023-07-13T03:38:53;8.50;;;3.60;;
74872;SDS011;68776;44.762;37.698;2023-07-13T03:40:00;9.38;;;3.17;;
74872;SDS011;68776;44.762;37.698;2023-07-13T03:41:03;9.52;;;3.50;;
74872;SDS011;68776;44.762;37.698;2023-07-13T03:42:04;11.95;;;3.47;;
74872;SDS011;68776;44.762;37.698;2023-07-13T03:43:06;6.75;;;3.05;;
74872;SDS011;68776;44.762;37.698;2023-07-13T03:44:07;6.53;;;3.23;;
74872;SDS011;68776;44.762;37.698;2023-07-13T03:45:08;7.78;;;3.17;;
74872;SDS011;68776;44.762;37.698;2023-07-13T03:46:10;8.48;;;3.63;;
74872;SDS011;68776;44.762;37.698;2023-07-13T03:47:11;8.13;;;3.90;;
74872;SDS011;68776;44.762;37.698;2023-07-13T03:48:13;8.25;;;3.65;;
74872;SDS011;68776;44.762;37.698;2023-07-13T03:49:15;7.70;;;3.20;;
74872;SDS011;68776;44.762;37.698;2023-07-13T03:50:16;6.63;;;3.42;;
74872;SDS011;68776;44.762;37.698;2023-07-13T03:51:17;7.32;;;3.08;;
74872;SDS011;68776;44.762;37.698;2023-07-13T03:52:18;7.13;;;3.83;;
74872;SDS011;68776;44.762;37.698;2023-07-13T03:53:19;7.30;;;3.30;;
74872;SDS011;68776;44.762;37.698;2023-07-13T03:54:21;9.10;;;3.75;;
74872;SDS011;68776;44.762;37.698;2023-07-13T03:55:22;8.65;;;3.75;;
74872;SDS011;68776;44.762;37.698;2023-07-13T03:56:23;8.32;;;3.80;;
74872;SDS011;68776;44.762;37.698;2023-07-13T03:57:24;7.20;;;3.25;;
74872;SDS011;68776;44.762;37.698;2023-07-13T03:58:32;7.57;;;3.70;;
74872;SDS011;68776;44.762;37.698;2023-07-13T03:59:41;9.07;;;3.88;;
74872;SDS011;68776;44.762;37.698;2023-07-13T04:00:42;9.15;;;3.30;;
74872;SDS011;68776;44.762;37.698;2023-07-13T04:01:44;8.25;;;3.47;;
74872;SDS011;68776;44.762;37.698;2023-07-13T04:02:46;7.28;;;3.17;;
74872;SDS011;68776;44.762;37.698;2023-07-13T04:03:50;7.55;;;3.40;;
74872;SDS011;68776;44.762;37.698;2023-07-13T04:04:51;7.97;;;3.40;;
74872;SDS011;68776;44.762;37.698;2023-07-13T04:05:56;7.45;;;3.35;;
74872;SDS011;68776;44.762;37.698;2023-07-13T04:07:00;8.25;;;3.22;;
74872;SDS011;68776;44.762;37.698;2023-07-13T04:08:03;8.02;;;3.53;;
74872;SDS011;68776;44.762;37.698;2023-07-13T04:09:07;9.07;;;3.53;;
74872;SDS011;68776;44.762;37.698;2023-07-13T04:10:10;8.30;;;3.47;;
74872;SDS011;68776;44.762;37.698;2023-07-13T04:11:11;9.52;;;3.58;;
74872;SDS011;68776;44.762;37.698;2023-07-13T04:12:12;9.03;;;3.70;;
74872;SDS011;68776;44.762;37.698;2023-07-13T04:13:13;7.88;;;3.78;;
74872;SDS011;68776;44.762;37.698;2023-07-13T04:14:15;10.20;;;3.50;;
74872;SDS011;68776;44.762;37.698;2023-07-13T04:15:16;11.27;;;3.60;;
74872;SDS011;68776;44.762;37.698;2023-07-13T04:16:17;9.43;;;3.88;;
74872;SDS011;68776;44.762;37.698;2023-07-13T04:17:19;7.32;;;3.67;;
74872;SDS011;68776;44.762;37.698;2023-07-13T04:18:20;7.60;;;3.53;;
74872;SDS011;68776;44.762;37.698;2023-07-13T04:19:21;8.43;;;3.80;;
74872;SDS011;68776;44.762;37.698;2023-07-13T04:20:22;7.38;;;3.47;;
74872;SDS011;68776;44.762;37.698;2023-07-13T04:21:29;8.57;;;3.22;;
74872;SDS011;68776;44.762;37.698;2023-07-13T04:22:31;10.25;;;3.72;;
74872;SDS011;68776;44.762;37.698;2023-07-13T04:23:32;7.70;;;3.63;;
74872;SDS011;68776;44.762;37.698;2023-07-13T04:24:32;7.85;;;3.92;;
74872;SDS011;68776;44.762;37.698;2023-07-13T04:25:33;8.40;;;3.70;;
74872;SDS011;68776;44.762;37.698;2023-07-13T04:26:34;7.20;;;3.40;;
74872;SDS011;68776;44.762;37.698;2023-07-13T04:27:38;7.37;;;3.67;;
74872;SDS011;68776;44.762;37.698;2023-07-13T04:28:39;8.70;;;3.47;;
74872;SDS011;68776;44.762;37.698;2023-07-13T04:29:40;7.97;;;3.97;;
74872;SDS011;68776;44.762;37.698;2023-07-13T04:30:42;11.38;;;4.07;;
74872;SDS011;68776;44.762;37.698;2023-07-13T04:31:42;10.55;;;3.75;;
74872;SDS011;68776;44.762;37.698;2023-07-13T04:32:43;7.82;;;3.72;;
74872;SDS011;68776;44.762;37.698;2023-07-13T04:33:44;7.85;;;3.78;;
74872;SDS011;68776;44.762;37.698;2023-07-13T04:34:45;6.93;;;3.10;;
74872;SDS011;68776;44.762;37.698;2023-07-13T04:35:46;10.65;;;4.32;;
74872;SDS011;68776;44.762;37.698;2023-07-13T04:36:47;8.57;;;4.10;;
74872;SDS011;68776;44.762;37.698;2023-07-13T04:37:49;8.05;;;3.90;;
74872;SDS011;68776;44.762;37.698;2023-07-13T04:38:50;9.00;;;3.90;;
74872;SDS011;68776;44.762;37.698;2023-07-13T04:39:51;7.07;;;3.30;;
74872;SDS011;68776;44.762;37.698;2023-07-13T04:40:54;8.63;;;3.53;;
74872;SDS011;68776;44.762;37.698;2023-07-13T04:41:57;7.63;;;3.85;;
74872;SDS011;68776;44.762;37.698;2023-07-13T04:42:58;7.10;;;3.50;;
74872;SDS011;68776;44.762;37.698;2023-07-13T04:43:59;7.38;;;3.63;;
74872;SDS011;68776;44.762;37.698;2023-07-13T04:45:00;8.17;;;3.63;;
74872;SDS011;68776;44.762;37.698;2023-07-13T04:46:04;8.15;;;3.85;;
74872;SDS011;68776;44.762;37.698;2023-07-13T04:47:06;6.82;;;3.55;;
74872;SDS011;68776;44.762;37.698;2023-07-13T04:48:07;10.15;;;3.95;;
74872;SDS011;68776;44.762;37.698;2023-07-13T04:49:09;8.20;;;4.23;;
74872;SDS011;68776;44.762;37.698;2023-07-13T04:50:12;8.63;;;4.22;;
74872;SDS011;68776;44.762;37.698;2023-07-13T04:51:18;8.95;;;3.78;;
74872;SDS011;68776;44.762;37.698;2023-07-13T04:52:19;8.90;;;3.42;;
74872;SDS011;68776;44.762;37.698;2023-07-13T04:53:20;7.63;;;3.40;;
74872;SDS011;68776;44.762;37.698;2023-07-13T04:54:21;7.32;;;3.45;;
74872;SDS011;68776;44.762;37.698;2023-07-13T04:55:22;7.05;;;3.97;;
74872;SDS011;68776;44.762;37.698;2023-07-13T04:56:23;8.80;;;3.78;;
74872;SDS011;68776;44.762;37.698;2023-07-13T04:57:24;7.07;;;3.58;;
74872;SDS011;68776;44.762;37.698;2023-07-13T04:58:25;8.60;;;3.88;;
74872;SDS011;68776;44.762;37.698;2023-07-13T04:59:26;10.27;;;3.38;;
74872;SDS011;68776;44.762;37.698;2023-07-13T05:00:28;7.60;;;3.72;;
74872;SDS011;68776;44.762;37.698;2023-07-13T05:01:29;7.63;;;3.28;;
74872;SDS011;68776;44.762;37.698;2023-07-13T05:02:31;6.88;;;3.17;;
74872;SDS011;68776;44.762;37.698;2023-07-13T05:03:33;7.72;;;3.45;;
74872;SDS011;68776;44.762;37.698;2023-07-13T05:04:34;7.80;;;3.60;;
74872;SDS011;68776;44.762;37.698;2023-07-13T05:05:35;7.18;;;3.45;;
74872;SDS011;68776;44.762;37.698;2023-07-13T05:06:36;11.13;;;3.40;;
74872;SDS011;68776;44.762;37.698;2023-07-13T05:07:37;10.10;;;3.08;;
74872;SDS011;68776;44.762;37.698;2023-07-13T05:08:38;7.88;;;3.30;;
74872;SDS011;68776;44.762;37.698;2023-07-13T05:09:40;8.23;;;3.25;;
74872;SDS011;68776;44.762;37.698;2023-07-13T05:10:41;7.95;;;3.17;;
74872;SDS011;68776;44.762;37.698;2023-07-13T05:11:43;7.60;;;3.35;;
74872;SDS011;68776;44.762;37.698;2023-07-13T05:12:44;8.95;;;3.33;;
74872;SDS011;68776;44.762;37.698;2023-07-13T05:13:45;7.47;;;2.92;;
74872;SDS011;68776;44.762;37.698;2023-07-13T05:14:46;7.65;;;3.25;;
74872;SDS011;68776;44.762;37.698;2023-07-13T05:15:52;6.93;;;3.15;;
74872;SDS011;68776;44.762;37.698;2023-07-13T05:16:56;6.57;;;3.10;;
74872;SDS011;68776;44.762;37.698;2023-07-13T05:17:57;7.38;;;3.28;;
74872;SDS011;68776;44.762;37.698;2023-07-13T05:18:58;7.68;;;2.80;;
74872;SDS011;68776;44.762;37.698;2023-07-13T05:19:59;7.18;;;3.17;;
74872;SDS011;68776;44.762;37.698;2023-07-13T05:21:01;6.90;;;3.35;;
74872;SDS011;68776;44.762;37.698;2023-07-13T05:22:04;7.32;;;3.25;;
74872;SDS011;68776;44.762;37.698;2023-07-13T05:23:05;8.00;;;3.42;;
74872;SDS011;68776;44.762;37.698;2023-07-13T05:24:06;7.18;;;3.22;;
74872;SDS011;68776;44.762;37.698;2023-07-13T05:25:07;7.03;;;3.22;;
74872;SDS011;68776;44.762;37.698;2023-07-13T05:26:09;7.13;;;2.92;;
74872;SDS011;68776;44.762;37.698;2023-07-13T05:27:10;6.25;;;2.85;;
74872;SDS011;68776;44.762;37.698;2023-07-13T05:28:11;5.82;;;2.55;;
74872;SDS011;68776;44.762;37.698;2023-07-13T05:29:12;8.50;;;3.13;;
74872;SDS011;68776;44.762;37.698;2023-07-13T05:30:13;6.85;;;3.20;;
74872;SDS011;68776;44.762;37.698;2023-07-13T05:31:14;6.80;;;3.15;;
74872;SDS011;68776;44.762;37.698;2023-07-13T05:32:15;8.27;;;3.20;;
74872;SDS011;68776;44.762;37.698;2023-07-13T05:33:17;7.67;;;3.27;;
74872;SDS011;68776;44.762;37.698;2023-07-13T05:34:18;6.43;;;2.80;;
74872;SDS011;68776;44.762;37.698;2023-07-13T05:35:19;6.43;;;2.83;;
74872;SDS011;68776;44.762;37.698;2023-07-13T05:36:20;7.83;;;3.07;;
74872;SDS011;68776;44.762;37.698;2023-07-13T05:37:21;7.57;;;3.10;;
74872;SDS011;68776;44.762;37.698;2023-07-13T05:38:22;5.95;;;2.58;;
74872;SDS011;68776;44.762;37.698;2023-07-13T05:39:23;6.82;;;2.83;;
74872;SDS011;68776;44.762;37.698;2023-07-13T05:40:24;6.10;;;2.55;;
74872;SDS011;68776;44.762;37.698;2023-07-13T05:41:25;6.27;;;2.50;;
74872;SDS011;68776;44.762;37.698;2023-07-13T05:42:26;6.05;;;2.63;;
74872;SDS011;68776;44.762;37.698;2023-07-13T05:43:27;6.60;;;2.90;;
74872;SDS011;68776;44.762;37.698;2023-07-13T05:44:28;7.63;;;2.80;;
74872;SDS011;68776;44.762;37.698;2023-07-13T05:45:29;6.30;;;2.73;;
74872;SDS011;68776;44.762;37.698;2023-07-13T05:46:30;5.70;;;2.38;;
74872;SDS011;68776;44.762;37.698;2023-07-13T05:47:31;6.73;;;2.90;;
74872;SDS011;68776;44.762;37.698;2023-07-13T05:48:32;5.90;;;2.40;;
74872;SDS011;68776;44.762;37.698;2023-07-13T05:49:33;6.47;;;2.90;;
74872;SDS011;68776;44.762;37.698;2023-07-13T05:50:34;6.63;;;3.08;;
74872;SDS011;68776;44.762;37.698;2023-07-13T05:51:35;7.47;;;2.90;;
74872;SDS011;68776;44.762;37.698;2023-07-13T05:52:35;8.05;;;2.78;;
74872;SDS011;68776;44.762;37.698;2023-07-13T05:53:36;8.90;;;2.60;;
74872;SDS011;68776;44.762;37.698;2023-07-13T05:54:38;9.23;;;3.47;;
74872;SDS011;68776;44.762;37.698;2023-07-13T05:55:42;7.38;;;2.72;;
74872;SDS011;68776;44.762;37.698;2023-07-13T05:56:44;5.80;;;2.65;;
74872;SDS011;68776;44.762;37.698;2023-07-13T05:57:45;6.75;;;2.88;;
74872;SDS011;68776;44.762;37.698;2023-07-13T05:58:47;8.10;;;2.60;;
74872;SDS011;68776;44.762;37.698;2023-07-13T05:59:49;6.78;;;2.72;;
74872;SDS011;68776;44.762;37.698;2023-07-13T06:00:57;7.95;;;3.17;;
74872;SDS011;68776;44.762;37.698;2023-07-13T06:02:00;6.23;;;2.77;;
74872;SDS011;68776;44.762;37.698;2023-07-13T06:03:01;8.73;;;2.65;;
74872;SDS011;68776;44.762;37.698;2023-07-13T06:04:02;7.25;;;2.90;;
74872;SDS011;68776;44.762;37.698;2023-07-13T06:05:04;5.70;;;2.45;;
74872;SDS011;68776;44.762;37.698;2023-07-13T06:06:05;6.80;;;3.00;;
74872;SDS011;68776;44.762;37.698;2023-07-13T06:07:07;7.00;;;2.30;;
74872;SDS011;68776;44.762;37.698;2023-07-13T06:08:08;6.72;;;2.90;;